createdAt,value
2022-11-19T00:01:28.089Z,16.45
2022-11-19T00:03:55.123Z,14.82
2022-11-19T00:06:27.171Z,13.70
2022-11-19T00:08:54.637Z,14.75
2022-11-19T00:11:43.007Z,16.05
2022-11-19T00:14:12.734Z,16.45
2022-11-19T00:16:40.066Z,16.02
2022-11-19T00:19:06.792Z,19.42
2022-11-19T00:21:33.553Z,16.23
2022-11-19T00:24:00.236Z,13.13
2022-11-19T00:26:27.042Z,13.80
2022-11-19T00:28:55.085Z,15.45
2022-11-19T00:31:21.906Z,15.27
2022-11-19T00:33:51.022Z,15.23
2022-11-19T00:36:18.270Z,10.88
2022-11-19T00:38:45.063Z,13.48
2022-11-19T00:41:12.117Z,15.95
2022-11-19T00:43:47.886Z,11.25
2022-11-19T00:46:21.702Z,17.17
2022-11-19T00:48:50.263Z,13.85
2022-11-19T00:51:18.441Z,12.80
2022-11-19T00:53:45.434Z,13.23
2022-11-19T00:56:14.893Z,12.13
2022-11-19T00:58:42.365Z,11.98
2022-11-19T01:01:10.641Z,12.80
2022-11-19T01:03:38.601Z,10.15
2022-11-19T01:06:06.351Z,14.05
2022-11-19T01:08:33.147Z,13.90
2022-11-19T01:11:14.972Z,16.27
2022-11-19T01:13:42.306Z,11.03
2022-11-19T01:16:35.413Z,11.57
2022-11-19T01:19:04.066Z,12.00
2022-11-19T01:21:33.879Z,8.15
2022-11-19T01:24:01.274Z,12.32
2022-11-19T01:26:28.618Z,9.98
2022-11-19T01:28:55.692Z,15.13
2022-11-19T01:31:25.132Z,14.75
2022-11-19T01:33:51.951Z,9.25
2022-11-19T01:36:25.282Z,12.48
2022-11-19T01:38:52.887Z,10.95
2022-11-19T01:41:37.530Z,11.52
2022-11-19T01:44:06.775Z,11.25
2022-11-19T01:46:36.208Z,12.60
2022-11-19T01:49:18.033Z,8.57
2022-11-19T01:51:54.778Z,10.13
2022-11-19T01:54:33.975Z,10.15
2022-11-19T01:57:06.793Z,7.22
2022-11-19T01:59:35.091Z,11.32
2022-11-19T02:02:01.849Z,7.15
2022-11-19T02:04:29.755Z,12.65
2022-11-19T02:06:57.692Z,9.30
2022-11-19T02:09:27.082Z,8.70
2022-11-19T02:12:24.579Z,9.95
2022-11-19T02:15:10.925Z,10.27
2022-11-19T02:18:02.582Z,11.98
2022-11-19T02:20:41.147Z,11.40
2022-11-19T02:23:46.436Z,8.20
2022-11-19T02:26:53.057Z,12.77
2022-11-19T02:29:32.039Z,10.15
2022-11-19T02:32:18.365Z,12.45
2022-11-19T02:34:57.919Z,8.93
2022-11-19T02:38:04.021Z,6.93
2022-11-19T02:40:45.370Z,8.88
2022-11-19T02:43:23.664Z,12.88
2022-11-19T02:45:59.551Z,9.95
2022-11-19T02:48:38.674Z,10.60
2022-11-19T02:51:09.292Z,14.40
2022-11-19T02:53:36.221Z,14.52
2022-11-19T02:56:35.809Z,11.30
2022-11-19T02:59:22.142Z,13.50
2022-11-19T03:02:08.799Z,12.98
2022-11-19T03:04:35.743Z,6.72
2022-11-19T03:07:19.572Z,12.95
2022-11-19T03:09:54.832Z,12.05
2022-11-19T03:12:31.722Z,8.23
2022-11-19T03:15:38.924Z,10.00
2022-11-19T03:18:32.216Z,11.07
2022-11-19T03:21:15.989Z,12.55
2022-11-19T03:23:54.800Z,6.78
2022-11-19T03:26:37.555Z,4.90
2022-11-19T03:29:10.284Z,8.13
2022-11-19T03:31:41.291Z,8.60
2022-11-19T03:34:15.529Z,10.73
2022-11-19T03:36:51.015Z,10.27
2022-11-19T03:39:20.683Z,6.43
2022-11-19T03:41:50.822Z,15.00
2022-11-19T03:44:25.994Z,8.50
2022-11-19T03:47:04.493Z,5.82
2022-11-19T03:49:35.251Z,6.57
2022-11-19T03:52:27.768Z,8.73
2022-11-19T03:54:54.873Z,4.47
2022-11-19T03:57:24.910Z,5.45
2022-11-19T03:59:51.629Z,8.23
2022-11-19T04:02:18.644Z,7.07
2022-11-19T04:04:45.525Z,7.00
2022-11-19T04:07:22.678Z,5.25
2022-11-19T04:09:49.892Z,10.25
2022-11-19T04:12:24.947Z,10.07
2022-11-19T04:14:52.373Z,8.30
2022-11-19T04:17:20.674Z,10.05
2022-11-19T04:19:47.415Z,10.52
2022-11-19T04:22:14.155Z,12.02
2022-11-19T04:24:40.869Z,6.65
2022-11-19T04:27:07.665Z,7.57
2022-11-19T04:29:34.420Z,7.22
2022-11-19T04:32:01.167Z,7.47
2022-11-19T04:34:27.908Z,7.53
2022-11-19T04:36:54.626Z,6.93
2022-11-19T04:39:21.659Z,7.50
2022-11-19T04:41:48.629Z,10.20
2022-11-19T04:44:15.330Z,12.55
2022-11-19T04:46:42.219Z,6.10
2022-11-19T04:49:09.010Z,9.23
2022-11-19T04:51:35.691Z,8.93
2022-11-19T04:54:02.457Z,7.20
2022-11-19T04:56:29.155Z,7.38
2022-11-19T04:58:55.922Z,6.28
2022-11-19T05:01:24.067Z,7.18
2022-11-19T05:03:50.851Z,7.28
2022-11-19T05:06:17.744Z,7.03
2022-11-19T05:08:44.788Z,4.22
2022-11-19T05:11:11.527Z,10.13
2022-11-19T05:13:38.458Z,14.65
2022-11-19T05:16:05.604Z,11.32
2022-11-19T05:18:32.418Z,7.70
2022-11-19T05:20:59.208Z,13.68
2022-11-19T05:23:26.036Z,9.73
2022-11-19T05:25:52.884Z,9.60
2022-11-19T05:28:24.898Z,6.57
2022-11-19T05:30:59.873Z,7.88
2022-11-19T05:33:29.840Z,8.50
2022-11-19T05:35:59.356Z,11.68
2022-11-19T05:38:26.114Z,12.32
2022-11-19T05:40:53.231Z,11.80
2022-11-19T05:43:19.915Z,11.68
2022-11-19T05:45:46.703Z,6.78
2022-11-19T05:48:13.517Z,7.07
2022-11-19T05:50:42.456Z,8.18
2022-11-19T05:53:09.953Z,7.47
2022-11-19T05:55:36.885Z,9.82
2022-11-19T05:58:03.730Z,10.95
2022-11-19T06:00:30.679Z,8.20
2022-11-19T06:02:57.478Z,7.10
2022-11-19T06:05:25.292Z,5.32
2022-11-19T06:07:54.172Z,11.02
2022-11-19T06:10:20.912Z,4.93
2022-11-19T06:12:47.603Z,7.20
2022-11-19T06:15:14.790Z,6.88
2022-11-19T06:17:42.413Z,6.53
2022-11-19T06:20:11.393Z,7.45
2022-11-19T06:22:38.787Z,5.93
2022-11-19T06:25:07.707Z,6.00
2022-11-19T06:27:35.313Z,7.03
2022-11-19T06:30:02.425Z,10.48
2022-11-19T06:32:29.144Z,9.25
2022-11-19T06:34:56.154Z,8.32
2022-11-19T06:37:23.038Z,5.90
2022-11-19T06:39:49.783Z,12.95
2022-11-19T06:42:37.552Z,10.27
2022-11-19T06:45:09.624Z,6.78
2022-11-19T06:47:37.545Z,4.50
2022-11-19T06:50:05.851Z,6.70
2022-11-19T06:52:33.646Z,7.93
2022-11-19T06:55:00.386Z,4.90
2022-11-19T06:57:27.114Z,6.57
2022-11-19T06:59:53.920Z,7.63
2022-11-19T07:02:23.592Z,5.25
2022-11-19T07:04:52.463Z,3.45
2022-11-19T07:07:19.261Z,5.18
2022-11-19T07:09:47.255Z,4.70
2022-11-19T07:12:13.971Z,7.32
2022-11-19T07:14:40.700Z,8.63
2022-11-19T07:17:07.504Z,8.80
2022-11-19T07:19:34.261Z,4.22
2022-11-19T07:22:01.002Z,5.13
2022-11-19T07:24:27.746Z,11.02
2022-11-19T07:26:55.358Z,6.85
2022-11-19T07:29:22.608Z,5.22
2022-11-19T07:31:50.842Z,4.75
2022-11-19T07:34:18.213Z,5.97
2022-11-19T07:36:45.539Z,5.90
2022-11-19T07:39:12.612Z,5.97
2022-11-19T07:41:58.242Z,7.47
2022-11-19T07:44:27.989Z,7.40
2022-11-19T07:46:54.722Z,6.03
2022-11-19T07:49:21.833Z,10.70
2022-11-19T07:51:49.996Z,7.05
2022-11-19T07:54:17.238Z,6.00
2022-11-19T07:56:43.983Z,9.10
2022-11-19T07:59:11.511Z,10.10
2022-11-19T08:01:38.947Z,6.68
2022-11-19T08:04:05.746Z,9.32
2022-11-19T08:06:34.552Z,5.65
2022-11-19T08:09:02.858Z,4.68
2022-11-19T08:11:29.778Z,6.35
2022-11-19T08:13:59.740Z,5.80
2022-11-19T08:16:45.274Z,9.10
2022-11-19T08:19:14.546Z,12.38
2022-11-19T08:21:46.930Z,9.18
2022-11-19T08:26:41.470Z,6.70
2022-11-19T08:29:14.633Z,13.27
2022-11-19T08:31:46.115Z,13.85
2022-11-19T08:34:13.102Z,9.05
2022-11-19T08:36:40.175Z,5.15
2022-11-19T08:39:07.045Z,7.47
2022-11-19T08:41:52.920Z,7.68
2022-11-19T08:44:21.196Z,9.20
2022-11-19T08:46:48.395Z,4.13
2022-11-19T08:49:15.170Z,6.80
2022-11-19T08:51:42.024Z,6.40
2022-11-19T08:54:08.810Z,10.15
2022-11-19T08:56:35.708Z,6.68
2022-11-19T08:59:03.159Z,5.97
2022-11-19T09:01:30.405Z,11.27
2022-11-19T09:03:57.183Z,30.38
2022-11-19T09:06:23.877Z,12.60
2022-11-19T09:08:50.659Z,8.23
2022-11-19T09:11:20.346Z,9.82
2022-11-19T09:13:47.461Z,10.25
2022-11-19T09:16:14.730Z,9.43
2022-11-19T09:18:42.484Z,10.48
2022-11-19T09:21:10.991Z,13.90
2022-11-19T09:23:38.337Z,14.65
2022-11-19T09:26:08.068Z,12.90
2022-11-19T09:28:35.644Z,10.32
2022-11-19T09:31:07.969Z,11.30
2022-11-19T09:33:37.086Z,11.95
2022-11-19T09:36:04.550Z,37.25
2022-11-19T09:38:35.761Z,29.58
2022-11-19T09:41:17.530Z,62.10
2022-11-19T09:44:17.890Z,105.95
2022-11-19T09:46:44.946Z,42.92
2022-11-19T09:49:17.317Z,26.42
2022-11-19T09:54:18.843Z,21.63
2022-11-19T09:56:47.607Z,19.55
2022-11-19T09:59:41.415Z,22.75
2022-11-19T10:02:19.748Z,17.40
2022-11-19T10:04:47.992Z,16.30
2022-11-19T10:07:33.331Z,9.77
2022-11-19T10:10:34.041Z,14.90
2022-11-19T10:13:12.310Z,9.18
2022-11-19T10:15:54.134Z,5.65
2022-11-19T10:18:59.370Z,6.23
2022-11-19T10:21:41.358Z,3.78
2022-11-19T10:24:19.097Z,6.28
2022-11-19T10:27:05.719Z,3.58
2022-11-19T10:29:38.336Z,8.90
2022-11-19T10:32:50.990Z,4.95
2022-11-19T10:35:22.922Z,5.05
2022-11-19T10:38:00.562Z,5.93
2022-11-19T10:40:39.703Z,7.57
2022-11-19T10:43:18.125Z,4.00
2022-11-19T10:45:47.426Z,5.75
2022-11-19T10:48:21.366Z,6.35
2022-11-19T10:50:48.137Z,4.95
2022-11-19T10:53:43.825Z,8.23
2022-11-19T10:56:18.933Z,9.18
2022-11-19T10:59:08.537Z,6.25
2022-11-19T11:01:38.924Z,4.18
2022-11-19T11:04:26.278Z,8.45
2022-11-19T11:06:56.011Z,9.15
2022-11-19T11:09:36.560Z,11.52
2022-11-19T11:12:40.164Z,11.93
2022-11-19T11:15:27.085Z,23.45
2022-11-19T11:18:03.494Z,15.73
2022-11-19T11:20:31.146Z,30.15
2022-11-19T11:23:09.171Z,25.05
2022-11-19T11:25:38.456Z,29.83
2022-11-19T11:28:11.826Z,18.42
2022-11-19T11:30:51.270Z,20.13
2022-11-19T11:33:30.514Z,12.18
2022-11-19T11:36:00.959Z,17.63
2022-11-19T11:38:28.818Z,10.65
2022-11-19T11:44:05.825Z,15.55
2022-11-19T11:46:41.081Z,11.30
2022-11-19T11:49:19.849Z,18.00
2022-11-19T11:51:46.738Z,13.00
2022-11-19T11:54:18.639Z,6.60
2022-11-19T11:56:46.074Z,16.52
2022-11-19T11:59:22.343Z,10.38
2022-11-19T12:01:56.938Z,6.22
2022-11-19T12:04:24.462Z,12.05
2022-11-19T12:07:05.695Z,3.53
2022-11-19T12:09:43.208Z,6.22
2022-11-19T12:12:35.339Z,5.55
2022-11-19T12:15:23.586Z,5.80
2022-11-19T12:18:09.997Z,11.80
2022-11-19T12:20:54.157Z,5.07
2022-11-19T12:23:38.688Z,7.63
2022-11-19T12:26:26.399Z,7.57
2022-11-19T12:29:10.886Z,3.90
2022-11-19T12:31:43.482Z,5.57
2022-11-19T12:34:22.332Z,4.90
2022-11-19T12:37:29.632Z,4.45
2022-11-19T12:40:14.915Z,4.82
2022-11-19T12:43:00.107Z,3.60
2022-11-19T12:45:51.124Z,2.35
2022-11-19T12:48:56.024Z,5.38
2022-11-19T12:51:30.060Z,7.38
2022-11-19T12:54:07.088Z,3.20
2022-11-19T12:57:00.457Z,7.00
2022-11-19T12:59:34.227Z,3.33
2022-11-19T13:02:14.685Z,3.55
2022-11-19T13:05:11.356Z,3.90
2022-11-19T13:07:45.049Z,4.80
2022-11-19T13:10:38.835Z,6.03
2022-11-19T13:13:09.918Z,4.90
2022-11-19T13:15:40.270Z,3.67
2022-11-19T13:18:15.546Z,2.70
2022-11-19T13:20:55.467Z,4.63
2022-11-19T13:23:31.469Z,3.65
2022-11-19T13:26:07.596Z,4.57
2022-11-19T13:28:48.646Z,5.82
2022-11-19T13:31:34.869Z,6.18
2022-11-19T13:34:16.110Z,2.20
2022-11-19T13:36:49.867Z,5.72
2022-11-19T13:39:20.451Z,6.38
2022-11-19T13:42:09.880Z,6.03
2022-11-19T13:44:41.708Z,5.07
2022-11-19T13:47:35.416Z,8.02
2022-11-19T13:50:18.698Z,6.68
2022-11-19T13:53:05.994Z,19.35
2022-11-19T13:55:36.784Z,13.45
2022-11-19T13:58:44.381Z,30.10
2022-11-19T14:01:55.857Z,8.95
2022-11-19T14:04:49.151Z,8.15
2022-11-19T14:07:42.975Z,4.45
2022-11-19T14:10:18.678Z,9.43
2022-11-19T14:13:08.328Z,5.55
2022-11-19T14:15:59.404Z,7.13
2022-11-19T14:18:57.880Z,9.25
2022-11-19T14:21:48.166Z,4.85
2022-11-19T14:24:42.870Z,4.60
2022-11-19T14:27:26.807Z,5.97
2022-11-19T14:30:19.492Z,6.80
2022-11-19T14:32:52.536Z,7.18
2022-11-19T14:35:46.054Z,6.88
2022-11-19T14:38:19.887Z,7.88
2022-11-19T14:41:27.300Z,3.60
2022-11-19T14:44:24.078Z,2.47
2022-11-19T14:46:51.574Z,4.10
2022-11-19T14:49:53.567Z,3.88
2022-11-19T14:55:26.371Z,6.15
2022-11-19T14:58:27.077Z,8.77
2022-11-19T15:01:21.042Z,5.20
2022-11-19T15:03:57.349Z,5.93
2022-11-19T15:06:25.163Z,5.55
2022-11-19T15:09:13.616Z,9.57
2022-11-19T15:12:03.199Z,2.00
2022-11-19T15:14:38.428Z,6.78
2022-11-19T15:17:08.045Z,4.63
2022-11-19T15:19:37.853Z,8.48
2022-11-19T15:22:23.261Z,9.30
2022-11-19T15:25:17.559Z,4.63
2022-11-19T15:27:52.384Z,3.90
2022-11-19T15:30:23.418Z,1.98
2022-11-19T15:32:59.612Z,3.15
2022-11-19T15:36:03.138Z,1.58
2022-11-19T15:43:06.411Z,1.30
2022-11-19T15:45:39.850Z,2.10
2022-11-19T15:48:53.333Z,2.90
2022-11-19T15:51:21.699Z,1.25
2022-11-19T15:54:18.187Z,4.28
2022-11-19T15:56:50.747Z,6.60
2022-11-19T15:59:20.277Z,2.97
2022-11-19T16:01:59.531Z,4.88
2022-11-19T16:04:39.134Z,2.75
2022-11-19T16:07:08.907Z,7.25
2022-11-19T16:09:36.204Z,1.63
2022-11-19T16:12:21.841Z,5.05
2022-11-19T16:15:12.781Z,5.30
2022-11-19T16:17:46.782Z,2.25
2022-11-19T16:20:13.523Z,4.25
2022-11-19T16:22:48.075Z,1.60
2022-11-19T16:25:36.815Z,11.80
2022-11-19T16:28:11.220Z,9.10
2022-11-19T16:30:43.487Z,14.15
2022-11-19T16:33:22.557Z,8.65
2022-11-19T16:35:53.135Z,12.13
2022-11-19T16:38:28.830Z,4.72
2022-11-19T16:41:16.060Z,5.40
2022-11-19T16:43:48.922Z,4.45
2022-11-19T16:46:19.187Z,30.48
2022-11-19T16:48:48.820Z,33.08
2022-11-19T16:51:40.350Z,54.13
2022-11-19T16:54:10.771Z,50.45
2022-11-19T16:56:47.812Z,61.17
2022-11-19T16:59:23.965Z,54.08
2022-11-19T17:01:56.727Z,30.73
2022-11-19T17:04:27.073Z,23.75
2022-11-19T17:07:00.103Z,24.38
2022-11-19T17:09:45.093Z,15.40
2022-11-19T17:12:25.203Z,23.70
2022-11-19T17:14:54.818Z,17.23
2022-11-19T17:17:25.779Z,15.18
2022-11-19T17:19:56.653Z,13.57
2022-11-19T17:22:30.326Z,15.13
2022-11-19T17:24:57.559Z,13.18
2022-11-19T17:27:35.242Z,12.57
2022-11-19T17:30:18.114Z,9.93
2022-11-19T17:33:05.095Z,12.65
2022-11-19T17:35:43.641Z,8.38
2022-11-19T17:38:11.631Z,7.85
2022-11-19T17:40:53.699Z,14.30
2022-11-19T17:43:42.658Z,7.43
2022-11-19T17:46:09.815Z,6.40
2022-11-19T17:48:40.726Z,12.18
2022-11-19T17:51:12.174Z,25.90
2022-11-19T17:53:38.937Z,40.07
2022-11-19T17:56:16.533Z,76.28
2022-11-19T17:58:43.219Z,76.38
2022-11-19T18:01:10.822Z,59.03
2022-11-19T18:03:39.255Z,55.75
2022-11-19T18:06:08.559Z,93.47
2022-11-19T18:08:37.069Z,51.67
2022-11-19T18:11:05.054Z,43.63
2022-11-19T18:13:35.628Z,41.72
2022-11-19T18:16:02.365Z,43.58
2022-11-19T18:18:29.062Z,39.53
2022-11-19T18:21:01.663Z,14.35
2022-11-19T18:23:28.741Z,27.52
2022-11-19T18:25:55.465Z,13.82
2022-11-19T18:28:22.154Z,17.23
2022-11-19T18:30:48.862Z,16.63
2022-11-19T18:33:15.595Z,8.45
2022-11-19T18:35:42.253Z,10.43
2022-11-19T18:38:08.978Z,8.90
2022-11-19T18:40:36.014Z,4.03
2022-11-19T18:43:21.280Z,5.68
2022-11-19T18:45:47.955Z,6.32
2022-11-19T18:48:14.672Z,9.07
2022-11-19T18:50:41.673Z,7.68
2022-11-19T18:53:10.860Z,5.63
2022-11-19T18:55:38.315Z,7.50
2022-11-19T18:58:05.198Z,10.73
2022-11-19T19:00:31.889Z,13.07
2022-11-19T19:03:00.580Z,16.60
2022-11-19T19:05:27.336Z,10.55
2022-11-19T19:07:54.230Z,10.15
2022-11-19T19:10:20.954Z,8.32
2022-11-19T19:12:47.621Z,9.82
2022-11-19T19:15:14.870Z,10.00
2022-11-19T19:17:41.697Z,11.55
2022-11-19T19:20:09.190Z,10.60
2022-11-19T19:22:35.875Z,18.15
2022-11-19T19:25:05.256Z,33.45
2022-11-19T19:27:32.621Z,33.63
2022-11-19T19:30:00.964Z,19.20
2022-11-19T19:32:28.697Z,14.45
2022-11-19T19:34:55.383Z,10.93
2022-11-19T19:37:22.175Z,20.60
2022-11-19T19:39:48.914Z,15.13
2022-11-19T19:42:15.629Z,21.95
2022-11-19T19:44:42.496Z,21.35
2022-11-19T19:47:09.189Z,19.35
2022-11-19T19:49:38.863Z,17.92
2022-11-19T19:52:06.167Z,15.15
2022-11-19T19:54:32.906Z,15.90
2022-11-19T19:56:59.663Z,13.32
2022-11-19T19:59:26.436Z,10.82
2022-11-19T20:01:53.892Z,10.07
2022-11-19T20:04:20.674Z,13.60
2022-11-19T20:06:48.336Z,11.18
2022-11-19T20:09:15.114Z,7.35
2022-11-19T20:11:41.925Z,9.70
2022-11-19T20:14:09.959Z,9.45
2022-11-19T20:16:40.396Z,12.65
2022-11-19T20:19:08.948Z,12.88
2022-11-19T20:21:36.597Z,14.80
2022-11-19T20:24:10.370Z,16.15
2022-11-19T20:26:40.271Z,12.30
2022-11-19T20:29:07.302Z,13.63
2022-11-19T20:31:35.005Z,12.98
2022-11-19T20:34:04.309Z,13.20
2022-11-19T20:36:33.953Z,16.23
2022-11-19T20:39:01.210Z,20.65
2022-11-19T20:41:47.856Z,23.90
2022-11-19T20:44:23.241Z,21.33
2022-11-19T20:46:50.142Z,29.05
2022-11-19T20:49:18.680Z,28.00
2022-11-19T20:51:46.249Z,22.95
2022-11-19T20:54:13.075Z,21.23
2022-11-19T20:56:40.237Z,17.10
2022-11-19T20:59:07.582Z,9.02
2022-11-19T21:01:35.050Z,11.70
2022-11-19T21:04:02.296Z,7.50
2022-11-19T21:06:29.017Z,7.43
2022-11-19T21:08:56.331Z,8.20
2022-11-19T21:11:23.368Z,10.73
2022-11-19T21:13:50.107Z,13.30
2022-11-19T21:16:20.290Z,11.75
2022-11-19T21:18:47.481Z,16.42
2022-11-19T21:21:15.952Z,20.45
2022-11-19T21:23:43.171Z,16.08
2022-11-19T21:26:13.873Z,23.05
2022-11-19T21:28:40.705Z,20.00
2022-11-19T21:31:07.745Z,21.80
2022-11-19T21:33:34.689Z,20.92
2022-11-19T21:36:03.827Z,24.98
2022-11-19T21:38:31.303Z,21.73
2022-11-19T21:40:58.274Z,24.98
2022-11-19T21:43:27.228Z,32.47
2022-11-19T21:45:54.879Z,24.20
2022-11-19T21:48:22.497Z,21.27
2022-11-19T21:50:50.059Z,17.20
2022-11-19T21:53:17.492Z,18.13
2022-11-19T21:55:45.443Z,15.68
2022-11-19T21:58:13.892Z,6.28
2022-11-19T22:00:41.907Z,11.23
2022-11-19T22:03:08.748Z,6.85
2022-11-19T22:05:35.559Z,3.88
2022-11-19T22:08:02.451Z,5.53
2022-11-19T22:10:29.805Z,2.85
2022-11-19T22:12:59.381Z,3.35
2022-11-19T22:15:27.090Z,4.38
2022-11-19T22:17:53.997Z,2.20
2022-11-19T22:20:21.135Z,2.75
2022-11-19T22:22:47.830Z,5.72
2022-11-19T22:25:14.872Z,7.13
2022-11-19T22:27:41.986Z,6.82
2022-11-19T22:30:10.299Z,4.50
2022-11-19T22:32:37.386Z,3.85
2022-11-19T22:35:05.118Z,5.25
2022-11-19T22:37:32.175Z,3.25
2022-11-19T22:39:59.078Z,3.15
2022-11-19T22:42:25.807Z,6.18
2022-11-19T22:44:52.518Z,4.65
2022-11-19T22:47:19.289Z,2.40
2022-11-19T22:49:46.105Z,3.92
2022-11-19T22:52:14.739Z,3.92
2022-11-19T22:54:43.006Z,3.65
2022-11-19T22:57:10.533Z,6.65
2022-11-19T22:59:37.281Z,4.22
2022-11-19T23:02:04.128Z,8.10
2022-11-19T23:04:30.939Z,5.25
2022-11-19T23:06:57.763Z,8.93
2022-11-19T23:09:24.575Z,3.60
2022-11-19T23:12:10.430Z,7.28
2022-11-19T23:14:37.727Z,8.80
2022-11-19T23:17:04.609Z,6.15
2022-11-19T23:19:31.301Z,3.22
2022-11-19T23:21:58.118Z,6.57
2022-11-19T23:24:24.889Z,4.88
2022-11-19T23:26:51.602Z,9.70
2022-11-19T23:29:18.761Z,8.90
2022-11-19T23:31:45.809Z,6.47
2022-11-19T23:34:12.592Z,11.98
2022-11-19T23:36:41.078Z,4.88
2022-11-19T23:39:13.887Z,8.65
2022-11-19T23:41:41.072Z,6.50
2022-11-19T23:44:07.794Z,7.65
2022-11-19T23:46:37.817Z,8.05
2022-11-19T23:49:05.828Z,11.13
2022-11-19T23:51:35.671Z,11.23
2022-11-19T23:54:02.937Z,9.80
2022-11-19T23:56:32.098Z,8.50
2022-11-19T23:59:01.047Z,11.50
